sensor_id;sensor_type;location;lat;lon;timestamp;temperature;humidity
24664;DHT22;12791;50.992;13.788;2022-11-20T04:00:15;-3.30;99.90
24664;DHT22;12791;50.992;13.788;2022-11-20T04:02:42;-3.40;99.90
24664;DHT22;12791;50.992;13.788;2022-11-20T04:05:09;-3.30;99.90
24664;DHT22;12791;50.992;13.788;2022-11-20T04:07:36;-3.90;99.90
24664;DHT22;12791;50.992;13.788;2022-11-20T04:10:03;-3.20;99.90
24664;DHT22;12791;50.992;13.788;2022-11-20T04:12:32;-3.30;99.90
24664;DHT22;12791;50.992;13.788;2022-11-20T04:14:59;-3.30;99.90
24664;DHT22;12791;50.992;13.788;2022-11-20T04:17:27;-3.20;99.90
24664;DHT22;12791;50.992;13.788;2022-11-20T04:19:53;-3.30;99.90
24664;DHT22;12791;50.992;13.788;2022-11-20T04:22:20;-3.40;99.90
24664;DHT22;12791;50.992;13.788;2022-11-20T04:24:47;-3.20;99.90
24664;DHT22;12791;50.992;13.788;2022-11-20T04:27:14;-3.30;99.90
24664;DHT22;12791;50.992;13.788;2022-11-20T04:29:40;-3.50;99.90
24664;DHT22;12791;50.992;13.788;2022-11-20T04:32:07;-3.20;99.90
24664;DHT22;12791;50.992;13.788;2022-11-20T04:34:35;-3.40;99.90
24664;DHT22;12791;50.992;13.788;2022-11-20T04:37:02;-3.50;99.90
24664;DHT22;12791;50.992;13.788;2022-11-20T04:39:29;-3.40;99.90
24664;DHT22;12791;50.992;13.788;2022-11-20T04:41:56;-3.10;99.90
24664;DHT22;12791;50.992;13.788;2022-11-20T04:44:36;-3.40;99.90
24664;DHT22;12791;50.992;13.788;2022-11-20T04:47:03;-3.40;99.90
24664;DHT22;12791;50.992;13.788;2022-11-20T04:49:30;-3.10;99.90
24664;DHT22;12791;50.992;13.788;2022-11-20T04:51:59;-3.30;99.90
24664;DHT22;12791;50.992;13.788;2022-11-20T04:54:26;-3.20;99.90
24664;DHT22;12791;50.992;13.788;2022-11-20T04:56:52;-3.20;99.90
24664;DHT22;12791;50.992;13.788;2022-11-20T04:59:19;-3.30;99.90
24664;DHT22;12791;50.992;13.788;2022-11-20T05:01:46;-3.20;99.90
24664;DHT22;12791;50.992;13.788;2022-11-20T05:04:13;-3.50;99.90
24664;DHT22;12791;50.992;13.788;2022-11-20T05:06:39;-3.20;99.90
24664;DHT22;12791;50.992;13.788;2022-11-20T05:09:08;-3.20;99.90
24664;DHT22;12791;50.992;13.788;2022-11-20T05:11:34;-3.40;99.90
24664;DHT22;12791;50.992;13.788;2022-11-20T05:14:01;-3.40;99.90
24664;DHT22;12791;50.992;13.788;2022-11-20T05:16:28;-3.20;99.90
24664;DHT22;12791;50.992;13.788;2022-11-20T05:18:55;-3.10;99.90
24664;DHT22;12791;50.992;13.788;2022-11-20T05:21:22;-3.20;99.90
24664;DHT22;12791;50.992;13.788;2022-11-20T05:23:49;-3.20;99.90
24664;DHT22;12791;50.992;13.788;2022-11-20T05:26:18;-3.20;99.90
24664;DHT22;12791;50.992;13.788;2022-11-20T05:28:46;-3.30;99.90
24664;DHT22;12791;50.992;13.788;2022-11-20T05:31:15;-3.50;99.90
24664;DHT22;12791;50.992;13.788;2022-11-20T05:33:43;-3.30;99.90
24664;DHT22;12791;50.992;13.788;2022-11-20T05:36:11;-3.50;99.90
24664;DHT22;12791;50.992;13.788;2022-11-20T05:38:39;-3.40;99.90
24664;DHT22;12791;50.992;13.788;2022-11-20T05:41:06;-3.50;99.90
24664;DHT22;12791;50.992;13.788;2022-11-20T05:43:35;-3.50;99.90
24664;DHT22;12791;50.992;13.788;2022-11-20T05:46:03;-3.50;99.90
24664;DHT22;12791;50.992;13.788;2022-11-20T05:48:30;-3.50;99.90
24664;DHT22;12791;50.992;13.788;2022-11-20T05:50:57;-3.40;99.90
24664;DHT22;12791;50.992;13.788;2022-11-20T05:53:24;-3.60;99.90
24664;DHT22;12791;50.992;13.788;2022-11-20T05:55:58;-3.50;99.90
24664;DHT22;12791;50.992;13.788;2022-11-20T05:58:25;-3.50;99.90
24664;DHT22;12791;50.992;13.788;2022-11-20T06:00:53;-3.50;99.90
24664;DHT22;12791;50.992;13.788;2022-11-20T06:03:19;-3.40;99.90
24664;DHT22;12791;50.992;13.788;2022-11-20T06:05:46;-3.30;99.90
24664;DHT22;12791;50.992;13.788;2022-11-20T06:08:13;-3.50;99.90
24664;DHT22;12791;50.992;13.788;2022-11-20T06:10:40;-3.50;99.90
24664;DHT22;12791;50.992;13.788;2022-11-20T06:13:07;-3.60;99.90
24664;DHT22;12791;50.992;13.788;2022-11-20T06:15:33;-3.50;99.90
24664;DHT22;12791;50.992;13.788;2022-11-20T06:18:01;-3.50;99.90
24664;DHT22;12791;50.992;13.788;2022-11-20T06:20:28;-3.50;99.90
24664;DHT22;12791;50.992;13.788;2022-11-20T06:22:55;-3.50;99.90
24664;DHT22;12791;50.992;13.788;2022-11-20T06:25:22;-3.40;99.90
24664;DHT22;12791;50.992;13.788;2022-11-20T06:27:48;-3.60;99.90
24664;DHT22;12791;50.992;13.788;2022-11-20T06:30:15;-3.30;99.90
24664;DHT22;12791;50.992;13.788;2022-11-20T06:32:42;-3.40;99.90
24664;DHT22;12791;50.992;13.788;2022-11-20T06:35:11;-3.30;99.90
24664;DHT22;12791;50.992;13.788;2022-11-20T06:37:38;-3.60;99.90
24664;DHT22;12791;50.992;13.788;2022-11-20T06:40:06;-3.50;99.90
24664;DHT22;12791;50.992;13.788;2022-11-20T06:42:33;-3.40;99.90
24664;DHT22;12791;50.992;13.788;2022-11-20T06:44:59;-3.50;99.90
24664;DHT22;12791;50.992;13.788;2022-11-20T06:47:26;-3.40;99.90
24664;DHT22;12791;50.992;13.788;2022-11-20T06:49:53;-3.30;99.90
24664;DHT22;12791;50.992;13.788;2022-11-20T06:52:21;-3.20;99.90
24664;DHT22;12791;50.992;13.788;2022-11-20T06:54:48;-3.30;99.90
24664;DHT22;12791;50.992;13.788;2022-11-20T06:57:14;-3.40;99.90
24664;DHT22;12791;50.992;13.788;2022-11-20T06:59:41;-3.40;99.90
24664;DHT22;12791;50.992;13.788;2022-11-20T07:02:09;-3.40;99.90
24664;DHT22;12791;50.992;13.788;2022-11-20T07:04:37;-3.20;99.90
24664;DHT22;12791;50.992;13.788;2022-11-20T07:07:04;-3.10;99.90
24664;DHT22;12791;50.992;13.788;2022-11-20T07:09:32;-3.20;99.90
24664;DHT22;12791;50.992;13.788;2022-11-20T07:11:59;-3.40;99.90
24664;DHT22;12791;50.992;13.788;2022-11-20T07:14:26;-3.20;99.90
24664;DHT22;12791;50.992;13.788;2022-11-20T07:16:53;-3.20;99.90
24664;DHT22;12791;50.992;13.788;2022-11-20T07:19:20;-3.10;99.90
24664;DHT22;12791;50.992;13.788;2022-11-20T07:21:47;-3.30;99.90
24664;DHT22;12791;50.992;13.788;2022-11-20T07:24:13;-3.40;99.90
24664;DHT22;12791;50.992;13.788;2022-11-20T07:26:42;-3.20;99.90
24664;DHT22;12791;50.992;13.788;2022-11-20T07:29:08;-3.20;99.90
24664;DHT22;12791;50.992;13.788;2022-11-20T07:31:35;-3.10;99.90
24664;DHT22;12791;50.992;13.788;2022-11-20T07:34:02;-3.00;99.90
24664;DHT22;12791;50.992;13.788;2022-11-20T07:36:29;-2.90;99.90
24664;DHT22;12791;50.992;13.788;2022-11-20T07:38:56;-3.00;99.90
24664;DHT22;12791;50.992;13.788;2022-11-20T07:41:22;-3.00;99.90
24664;DHT22;12791;50.992;13.788;2022-11-20T07:43:50;-2.90;99.90
24664;DHT22;12791;50.992;13.788;2022-11-20T07:46:17;-3.00;99.90
24664;DHT22;12791;50.992;13.788;2022-11-20T07:48:44;-2.90;99.90
24664;DHT22;12791;50.992;13.788;2022-11-20T07:51:11;-2.80;99.90
24664;DHT22;12791;50.992;13.788;2022-11-20T07:53:38;-2.70;99.90
24664;DHT22;12791;50.992;13.788;2022-11-20T07:56:06;-2.70;99.90
24664;DHT22;12791;50.992;13.788;2022-11-20T07:58:32;-2.40;99.90
24664;DHT22;12791;50.992;13.788;2022-11-20T08:01:04;-2.40;99.90
24664;DHT22;12791;50.992;13.788;2022-11-20T08:03:31;-2.50;99.90
24664;DHT22;12791;50.992;13.788;2022-11-20T08:05:59;-2.50;99.90
24664;DHT22;12791;50.992;13.788;2022-11-20T08:08:26;-2.30;99.90
24664;DHT22;12791;50.992;13.788;2022-11-20T08:10:53;-2.50;99.90
24664;DHT22;12791;50.992;13.788;2022-11-20T08:13:40;-2.40;99.90
24664;DHT22;12791;50.992;13.788;2022-11-20T08:16:26;-2.20;99.90
24664;DHT22;12791;50.992;13.788;2022-11-20T08:18:53;-2.40;99.90
24664;DHT22;12791;50.992;13.788;2022-11-20T08:21:20;-1.90;99.90
24664;DHT22;12791;50.992;13.788;2022-11-20T08:23:47;-2.00;99.90
24664;DHT22;12791;50.992;13.788;2022-11-20T08:26:13;-2.10;99.90
24664;DHT22;12791;50.992;13.788;2022-11-20T08:28:40;-1.90;99.90
24664;DHT22;12791;50.992;13.788;2022-11-20T08:31:07;-1.80;99.90
24664;DHT22;12791;50.992;13.788;2022-11-20T08:33:36;-2.10;99.90
24664;DHT22;12791;50.992;13.788;2022-11-20T08:36:04;-1.90;99.90
24664;DHT22;12791;50.992;13.788;2022-11-20T08:38:32;-1.60;99.90
24664;DHT22;12791;50.992;13.788;2022-11-20T08:40:59;-1.60;99.90
24664;DHT22;12791;50.992;13.788;2022-11-20T08:43:44;-1.60;99.90
24664;DHT22;12791;50.992;13.788;2022-11-20T08:46:11;-1.80;99.90
24664;DHT22;12791;50.992;13.788;2022-11-20T08:48:39;-1.50;99.90
24664;DHT22;12791;50.992;13.788;2022-11-20T08:51:06;-1.40;99.90
24664;DHT22;12791;50.992;13.788;2022-11-20T08:53:33;-1.20;99.90
24664;DHT22;12791;50.992;13.788;2022-11-20T08:55:59;-1.20;99.90
24664;DHT22;12791;50.992;13.788;2022-11-20T08:58:26;-1.00;99.90
24664;DHT22;12791;50.992;13.788;2022-11-20T09:00:53;-1.10;99.90
24664;DHT22;12791;50.992;13.788;2022-11-20T09:03:20;-1.20;99.90
24664;DHT22;12791;50.992;13.788;2022-11-20T09:05:48;-1.00;99.90
24664;DHT22;12791;50.992;13.788;2022-11-20T09:08:16;-1.00;99.90
24664;DHT22;12791;50.992;13.788;2022-11-20T09:10:42;-0.90;99.90
24664;DHT22;12791;50.992;13.788;2022-11-20T09:13:09;-0.70;99.90
24664;DHT22;12791;50.992;13.788;2022-11-20T09:15:36;-0.70;99.90
24664;DHT22;12791;50.992;13.788;2022-11-20T09:18:03;-0.70;99.90
24664;DHT22;12791;50.992;13.788;2022-11-20T09:20:30;-0.70;99.90
24664;DHT22;12791;50.992;13.788;2022-11-20T09:22:58;-0.80;99.90
24664;DHT22;12791;50.992;13.788;2022-11-20T09:25:25;-0.60;99.90
24664;DHT22;12791;50.992;13.788;2022-11-20T09:27:55;-0.80;99.90
24664;DHT22;12791;50.992;13.788;2022-11-20T09:30:22;-0.60;99.90
24664;DHT22;12791;50.992;13.788;2022-11-20T09:32:49;-0.60;99.90
24664;DHT22;12791;50.992;13.788;2022-11-20T09:35:15;-0.70;99.90
24664;DHT22;12791;50.992;13.788;2022-11-20T09:37:43;-0.60;99.90
24664;DHT22;12791;50.992;13.788;2022-11-20T09:40:19;-0.60;99.90
24664;DHT22;12791;50.992;13.788;2022-11-20T09:42:52;-0.50;99.90
24664;DHT22;12791;50.992;13.788;2022-11-20T09:45:32;-0.40;99.90
24664;DHT22;12791;50.992;13.788;2022-11-20T09:48:14;-0.40;99.90
24664;DHT22;12791;50.992;13.788;2022-11-20T09:50:47;-0.40;99.90
24664;DHT22;12791;50.992;13.788;2022-11-20T09:53:23;-0.40;99.90
24664;DHT22;12791;50.992;13.788;2022-11-20T09:55:52;-0.30;99.90
24664;DHT22;12791;50.992;13.788;2022-11-20T09:58:27;-0.30;99.90
24664;DHT22;12791;50.992;13.788;2022-11-20T10:00:57;-0.20;99.90
24664;DHT22;12791;50.992;13.788;2022-11-20T10:03:33;0.20;99.90
24664;DHT22;12791;50.992;13.788;2022-11-20T10:06:03;0.00;99.90
24664;DHT22;12791;50.992;13.788;2022-11-20T10:08:38;0.20;99.90
24664;DHT22;12791;50.992;13.788;2022-11-20T10:11:12;0.00;99.90
24664;DHT22;12791;50.992;13.788;2022-11-20T10:13:49;0.10;99.90
24664;DHT22;12791;50.992;13.788;2022-11-20T10:16:24;0.10;99.90
24664;DHT22;12791;50.992;13.788;2022-11-20T10:19:05;0.10;99.90
24664;DHT22;12791;50.992;13.788;2022-11-20T10:21:40;0.20;99.90
24664;DHT22;12791;50.992;13.788;2022-11-20T10:24:34;0.30;99.90
24664;DHT22;12791;50.992;13.788;2022-11-20T10:27:18;0.40;99.90
24664;DHT22;12791;50.992;13.788;2022-11-20T10:29:59;0.50;99.90
24664;DHT22;12791;50.992;13.788;2022-11-20T10:32:33;0.30;99.90
24664;DHT22;12791;50.992;13.788;2022-11-20T10:35:06;0.40;99.90
24664;DHT22;12791;50.992;13.788;2022-11-20T10:37:37;0.60;99.90
24664;DHT22;12791;50.992;13.788;2022-11-20T10:40:20;0.40;99.90
24664;DHT22;12791;50.992;13.788;2022-11-20T10:42:51;0.80;99.90
24664;DHT22;12791;50.992;13.788;2022-11-20T10:45:35;0.80;99.90
24664;DHT22;12791;50.992;13.788;2022-11-20T10:48:12;0.80;99.90
24664;DHT22;12791;50.992;13.788;2022-11-20T10:50:49;0.40;99.90
24664;DHT22;12791;50.992;13.788;2022-11-20T10:53:38;0.40;99.90
24664;DHT22;12791;50.992;13.788;2022-11-20T10:56:15;0.40;99.90
24664;DHT22;12791;50.992;13.788;2022-11-20T10:58:52;0.50;99.90
24664;DHT22;12791;50.992;13.788;2022-11-20T11:01:21;0.70;99.90
24664;DHT22;12791;50.992;13.788;2022-11-20T11:03:48;0.50;99.90
24664;DHT22;12791;50.992;13.788;2022-11-20T11:06:20;0.50;99.90
24664;DHT22;12791;50.992;13.788;2022-11-20T11:08:49;0.60;99.90
24664;DHT22;12791;50.992;13.788;2022-11-20T11:11:22;0.70;99.90
24664;DHT22;12791;50.992;13.788;2022-11-20T11:13:51;0.90;99.90
24664;DHT22;12791;50.992;13.788;2022-11-20T11:16:22;1.00;99.90
24664;DHT22;12791;50.992;13.788;2022-11-20T11:18:50;1.10;99.90
24664;DHT22;12791;50.992;13.788;2022-11-20T11:21:22;1.00;99.90
24664;DHT22;12791;50.992;13.788;2022-11-20T11:23:58;0.90;99.90
24664;DHT22;12791;50.992;13.788;2022-11-20T11:26:26;1.30;99.90
24664;DHT22;12791;50.992;13.788;2022-11-20T11:28:55;1.10;99.90
24664;DHT22;12791;50.992;13.788;2022-11-20T11:31:24;1.30;99.90
24664;DHT22;12791;50.992;13.788;2022-11-20T11:33:51;1.10;99.90
24664;DHT22;12791;50.992;13.788;2022-11-20T11:36:19;1.60;99.90
24664;DHT22;12791;50.992;13.788;2022-11-20T11:38:50;1.40;99.90
24664;DHT22;12791;50.992;13.788;2022-11-20T11:41:20;1.50;99.90
24664;DHT22;12791;50.992;13.788;2022-11-20T11:43:52;1.40;99.90
24664;DHT22;12791;50.992;13.788;2022-11-20T11:46:39;1.80;99.90
24664;DHT22;12791;50.992;13.788;2022-11-20T11:49:16;1.50;99.90
24664;DHT22;12791;50.992;13.788;2022-11-20T11:51:54;1.70;99.90
24664;DHT22;12791;50.992;13.788;2022-11-20T11:54:25;1.80;99.90
24664;DHT22;12791;50.992;13.788;2022-11-20T11:56:55;1.70;99.90
24664;DHT22;12791;50.992;13.788;2022-11-20T11:59:28;1.80;99.90
24664;DHT22;12791;50.992;13.788;2022-11-20T12:02:04;1.80;99.90
24664;DHT22;12791;50.992;13.788;2022-11-20T12:04:44;1.80;99.90
24664;DHT22;12791;50.992;13.788;2022-11-20T12:07:19;2.00;99.90
24664;DHT22;12791;50.992;13.788;2022-11-20T12:09:49;2.00;99.90
24664;DHT22;12791;50.992;13.788;2022-11-20T12:12:20;2.00;99.90
24664;DHT22;12791;50.992;13.788;2022-11-20T12:14:49;1.80;99.90
24664;DHT22;12791;50.992;13.788;2022-11-20T12:17:20;1.80;99.90
24664;DHT22;12791;50.992;13.788;2022-11-20T12:19:46;1.90;99.90
24664;DHT22;12791;50.992;13.788;2022-11-20T12:22:25;1.90;99.90
24664;DHT22;12791;50.992;13.788;2022-11-20T12:24:56;2.00;99.90
24664;DHT22;12791;50.992;13.788;2022-11-20T12:27:39;1.90;99.90
24664;DHT22;12791;50.992;13.788;2022-11-20T12:30:10;1.90;99.90
24664;DHT22;12791;50.992;13.788;2022-11-20T12:33:01;1.90;99.90
24664;DHT22;12791;50.992;13.788;2022-11-20T12:35:48;1.90;99.90
24664;DHT22;12791;50.992;13.788;2022-11-20T12:38:45;1.90;99.90
24664;DHT22;12791;50.992;13.788;2022-11-20T12:41:19;1.90;99.90
24664;DHT22;12791;50.992;13.788;2022-11-20T12:44:10;1.90;99.90
24664;DHT22;12791;50.992;13.788;2022-11-20T12:47:08;1.80;99.90
24664;DHT22;12791;50.992;13.788;2022-11-20T12:49:47;2.10;99.90
24664;DHT22;12791;50.992;13.788;2022-11-20T12:52:38;1.80;99.90
24664;DHT22;12791;50.992;13.788;2022-11-20T12:55:16;2.00;99.90
24664;DHT22;12791;50.992;13.788;2022-11-20T12:57:48;1.90;99.90
24664;DHT22;12791;50.992;13.788;2022-11-20T13:00:17;2.00;99.90
24664;DHT22;12791;50.992;13.788;2022-11-20T13:03:05;2.10;99.90
24664;DHT22;12791;50.992;13.788;2022-11-20T13:05:40;2.10;99.90
24664;DHT22;12791;50.992;13.788;2022-11-20T13:08:18;2.00;99.90
24664;DHT22;12791;50.992;13.788;2022-11-20T13:10:50;1.90;99.90
24664;DHT22;12791;50.992;13.788;2022-11-20T13:13:23;2.00;99.90
24664;DHT22;12791;50.992;13.788;2022-11-20T13:15:56;1.90;99.90
24664;DHT22;12791;50.992;13.788;2022-11-20T13:18:25;1.80;99.90
24664;DHT22;12791;50.992;13.788;2022-11-20T13:20:54;2.10;99.90
24664;DHT22;12791;50.992;13.788;2022-11-20T13:23:24;2.10;99.90
24664;DHT22;12791;50.992;13.788;2022-11-20T13:26:03;1.80;99.90
24664;DHT22;12791;50.992;13.788;2022-11-20T13:28:31;2.10;99.90
24664;DHT22;12791;50.992;13.788;2022-11-20T13:30:58;1.90;99.90
24664;DHT22;12791;50.992;13.788;2022-11-20T13:33:29;2.10;99.90
24664;DHT22;12791;50.992;13.788;2022-11-20T13:35:59;1.90;99.90
24664;DHT22;12791;50.992;13.788;2022-11-20T13:38:26;2.00;99.90
24664;DHT22;12791;50.992;13.788;2022-11-20T13:40:55;2.10;99.90
24664;DHT22;12791;50.992;13.788;2022-11-20T13:43:28;1.70;99.90
24664;DHT22;12791;50.992;13.788;2022-11-20T13:45:56;2.20;99.90
24664;DHT22;12791;50.992;13.788;2022-11-20T13:48:26;2.10;99.90
24664;DHT22;12791;50.992;13.788;2022-11-20T13:51:02;2.10;99.90
24664;DHT22;12791;50.992;13.788;2022-11-20T13:53:48;2.00;99.90
24664;DHT22;12791;50.992;13.788;2022-11-20T13:56:24;2.30;99.90
24664;DHT22;12791;50.992;13.788;2022-11-20T13:58:59;2.20;99.90
24664;DHT22;12791;50.992;13.788;2022-11-20T14:01:30;2.20;99.90
24664;DHT22;12791;50.992;13.788;2022-11-20T14:03:58;2.30;99.90
24664;DHT22;12791;50.992;13.788;2022-11-20T14:06:28;2.30;99.90
24664;DHT22;12791;50.992;13.788;2022-11-20T14:08:56;2.10;99.90
24664;DHT22;12791;50.992;13.788;2022-11-20T14:11:24;2.20;99.90
24664;DHT22;12791;50.992;13.788;2022-11-20T14:13:54;2.30;99.90
24664;DHT22;12791;50.992;13.788;2022-11-20T14:16:22;2.30;99.90
24664;DHT22;12791;50.992;13.788;2022-11-20T14:18:49;2.20;99.90
24664;DHT22;12791;50.992;13.788;2022-11-20T14:21:22;2.20;99.90
24664;DHT22;12791;50.992;13.788;2022-11-20T14:23:54;2.10;99.90
24664;DHT22;12791;50.992;13.788;2022-11-20T14:26:28;2.20;99.90
24664;DHT22;12791;50.992;13.788;2022-11-20T14:28:55;2.00;99.90
24664;DHT22;12791;50.992;13.788;2022-11-20T14:31:24;2.20;99.90
24664;DHT22;12791;50.992;13.788;2022-11-20T14:33:52;2.10;99.90
24664;DHT22;12791;50.992;13.788;2022-11-20T14:36:21;2.20;99.90
24664;DHT22;12791;50.992;13.788;2022-11-20T14:38:50;2.20;99.90
24664;DHT22;12791;50.992;13.788;2022-11-20T14:41:19;1.90;99.90
24664;DHT22;12791;50.992;13.788;2022-11-20T14:43:47;2.10;99.90
24664;DHT22;12791;50.992;13.788;2022-11-20T14:46:19;2.00;99.90
24664;DHT22;12791;50.992;13.788;2022-11-20T14:48:57;2.20;99.90
24664;DHT22;12791;50.992;13.788;2022-11-20T14:51:35;2.10;99.90
24664;DHT22;12791;50.992;13.788;2022-11-20T14:54:12;2.10;99.90
24664;DHT22;12791;50.992;13.788;2022-11-20T14:56:40;1.90;99.90
24664;DHT22;12791;50.992;13.788;2022-11-20T14:59:08;2.00;99.90
24664;DHT22;12791;50.992;13.788;2022-11-20T15:01:35;2.20;99.90
24664;DHT22;12791;50.992;13.788;2022-11-20T15:04:06;1.90;99.90
24664;DHT22;12791;50.992;13.788;2022-11-20T15:06:34;1.90;99.90
24664;DHT22;12791;50.992;13.788;2022-11-20T15:09:02;2.00;99.90
24664;DHT22;12791;50.992;13.788;2022-11-20T15:11:32;2.10;99.90
24664;DHT22;12791;50.992;13.788;2022-11-20T15:14:03;1.90;99.90
24664;DHT22;12791;50.992;13.788;2022-11-20T15:16:31;2.10;99.90
24664;DHT22;12791;50.992;13.788;2022-11-20T15:18:58;1.80;99.90
24664;DHT22;12791;50.992;13.788;2022-11-20T15:21:25;2.00;99.90
24664;DHT22;12791;50.992;13.788;2022-11-20T15:23:52;1.90;99.90
24664;DHT22;12791;50.992;13.788;2022-11-20T15:26:23;1.70;99.90
24664;DHT22;12791;50.992;13.788;2022-11-20T15:28:52;1.50;99.90
24664;DHT22;12791;50.992;13.788;2022-11-20T15:31:22;1.70;99.90
24664;DHT22;12791;50.992;13.788;2022-11-20T15:33:49;1.50;99.90
24664;DHT22;12791;50.992;13.788;2022-11-20T15:36:16;1.70;99.90
24664;DHT22;12791;50.992;13.788;2022-11-20T15:38:43;1.40;99.90
24664;DHT22;12791;50.992;13.788;2022-11-20T15:41:10;1.40;99.90
24664;DHT22;12791;50.992;13.788;2022-11-20T15:43:37;1.60;99.90
24664;DHT22;12791;50.992;13.788;2022-11-20T15:46:09;1.50;99.90
24664;DHT22;12791;50.992;13.788;2022-11-20T15:48:38;1.40;99.90
24664;DHT22;12791;50.992;13.788;2022-11-20T15:51:14;1.40;99.90
24664;DHT22;12791;50.992;13.788;2022-11-20T15:53:45;1.20;99.90
24664;DHT22;12791;50.992;13.788;2022-11-20T15:56:13;1.30;99.90
24664;DHT22;12791;50.992;13.788;2022-11-20T15:58:40;1.40;99.90
24664;DHT22;12791;50.992;13.788;2022-11-20T16:01:11;1.00;99.90
24664;DHT22;12791;50.992;13.788;2022-11-20T16:03:38;1.10;99.90
24664;DHT22;12791;50.992;13.788;2022-11-20T16:06:05;1.00;99.90
24664;DHT22;12791;50.992;13.788;2022-11-20T16:08:32;1.20;99.90
24664;DHT22;12791;50.992;13.788;2022-11-20T16:10:58;1.10;99.90
24664;DHT22;12791;50.992;13.788;2022-11-20T16:13:25;0.70;99.90
24664;DHT22;12791;50.992;13.788;2022-11-20T16:16:19;0.90;99.90
24664;DHT22;12791;50.992;13.788;2022-11-20T16:18:47;1.00;99.90
24664;DHT22;12791;50.992;13.788;2022-11-20T16:21:14;1.00;99.90
24664;DHT22;12791;50.992;13.788;2022-11-20T16:23:41;0.70;99.90
24664;DHT22;12791;50.992;13.788;2022-11-20T16:26:09;0.90;99.90
24664;DHT22;12791;50.992;13.788;2022-11-20T16:28:36;0.80;99.90
24664;DHT22;12791;50.992;13.788;2022-11-20T16:31:08;0.70;99.90
24664;DHT22;12791;50.992;13.788;2022-11-20T16:33:36;0.50;99.90
24664;DHT22;12791;50.992;13.788;2022-11-20T16:36:09;0.50;99.90
24664;DHT22;12791;50.992;13.788;2022-11-20T16:38:37;0.70;99.90
24664;DHT22;12791;50.992;13.788;2022-11-20T16:41:05;0.80;99.90
24664;DHT22;12791;50.992;13.788;2022-11-20T16:43:31;0.70;99.90
24664;DHT22;12791;50.992;13.788;2022-11-20T16:45:58;0.60;99.90
24664;DHT22;12791;50.992;13.788;2022-11-20T16:48:29;0.60;99.90
24664;DHT22;12791;50.992;13.788;2022-11-20T16:50:57;0.50;99.90
24664;DHT22;12791;50.992;13.788;2022-11-20T16:53:24;0.60;99.90
24664;DHT22;12791;50.992;13.788;2022-11-20T16:55:51;0.80;99.90
24664;DHT22;12791;50.992;13.788;2022-11-20T16:58:18;0.50;99.90
24664;DHT22;12791;50.992;13.788;2022-11-20T17:00:45;0.60;99.90
24664;DHT22;12791;50.992;13.788;2022-11-20T17:03:11;0.60;99.90
24664;DHT22;12791;50.992;13.788;2022-11-20T17:05:39;0.40;99.90
24664;DHT22;12791;50.992;13.788;2022-11-20T17:08:07;0.30;99.90
24664;DHT22;12791;50.992;13.788;2022-11-20T17:10:34;0.40;99.90
24664;DHT22;12791;50.992;13.788;2022-11-20T17:13:00;0.30;99.90
24664;DHT22;12791;50.992;13.788;2022-11-20T17:15:27;0.40;99.90
24664;DHT22;12791;50.992;13.788;2022-11-20T17:17:54;0.40;99.90
24664;DHT22;12791;50.992;13.788;2022-11-20T17:20:21;0.20;99.90
24664;DHT22;12791;50.992;13.788;2022-11-20T17:22:48;0.40;99.90
24664;DHT22;12791;50.992;13.788;2022-11-20T17:25:16;0.20;99.90
24664;DHT22;12791;50.992;13.788;2022-11-20T17:27:43;0.20;99.90
24664;DHT22;12791;50.992;13.788;2022-11-20T17:30:10;0.20;99.90
24664;DHT22;12791;50.992;13.788;2022-11-20T17:32:36;0.20;99.90
24664;DHT22;12791;50.992;13.788;2022-11-20T17:35:05;0.20;99.90
24664;DHT22;12791;50.992;13.788;2022-11-20T17:37:31;0.30;99.90
24664;DHT22;12791;50.992;13.788;2022-11-20T17:39:58;0.10;99.90
24664;DHT22;12791;50.992;13.788;2022-11-20T17:42:26;0.10;99.90
24664;DHT22;12791;50.992;13.788;2022-11-20T17:44:54;0.20;99.90
24664;DHT22;12791;50.992;13.788;2022-11-20T17:47:23;-0.10;99.90
24664;DHT22;12791;50.992;13.788;2022-11-20T17:49:50;0.20;99.90
24664;DHT22;12791;50.992;13.788;2022-11-20T17:52:18;-0.10;99.90
24664;DHT22;12791;50.992;13.788;2022-11-20T17:54:44;0.10;99.90
24664;DHT22;12791;50.992;13.788;2022-11-20T17:57:11;0.00;99.90
24664;DHT22;12791;50.992;13.788;2022-11-20T17:59:57;0.00;99.90
24664;DHT22;12791;50.992;13.788;2022-11-20T18:02:23;-0.10;99.90
24664;DHT22;12791;50.992;13.788;2022-11-20T18:04:50;-0.30;99.90
24664;DHT22;12791;50.992;13.788;2022-11-20T18:07:17;-0.30;99.90
24664;DHT22;12791;50.992;13.788;2022-11-20T18:09:44;-0.10;99.90
24664;DHT22;12791;50.992;13.788;2022-11-20T18:12:10;-0.40;99.90
24664;DHT22;12791;50.992;13.788;2022-11-20T18:14:37;-0.40;99.90
24664;DHT22;12791;50.992;13.788;2022-11-20T18:17:07;-0.40;99.90
24664;DHT22;12791;50.992;13.788;2022-11-20T18:19:37;-0.30;99.90
24664;DHT22;12791;50.992;13.788;2022-11-20T18:22:04;-0.20;99.90
24664;DHT22;12791;50.992;13.788;2022-11-20T18:24:33;-0.30;99.90
24664;DHT22;12791;50.992;13.788;2022-11-20T18:27:00;-0.30;99.90
24664;DHT22;12791;50.992;13.788;2022-11-20T18:29:28;-0.40;99.90
24664;DHT22;12791;50.992;13.788;2022-11-20T18:31:56;-0.50;99.90
24664;DHT22;12791;50.992;13.788;2022-11-20T18:34:24;-0.50;99.90
24664;DHT22;12791;50.992;13.788;2022-11-20T18:36:51;-0.30;99.90
24664;DHT22;12791;50.992;13.788;2022-11-20T18:39:18;-0.40;99.90
24664;DHT22;12791;50.992;13.788;2022-11-20T18:41:45;-0.50;99.90
24664;DHT22;12791;50.992;13.788;2022-11-20T18:44:31;-0.60;99.90
24664;DHT22;12791;50.992;13.788;2022-11-20T18:47:16;-0.70;99.90
24664;DHT22;12791;50.992;13.788;2022-11-20T18:49:47;-0.50;99.90
24664;DHT22;12791;50.992;13.788;2022-11-20T18:52:17;-0.50;99.90
24664;DHT22;12791;50.992;13.788;2022-11-20T18:54:44;-0.50;99.90
24664;DHT22;12791;50.992;13.788;2022-11-20T18:57:11;-0.80;99.90
24664;DHT22;12791;50.992;13.788;2022-11-20T18:59:39;-0.70;99.90
24664;DHT22;12791;50.992;13.788;2022-11-20T19:02:08;-0.70;99.90
24664;DHT22;12791;50.992;13.788;2022-11-20T19:04:35;-0.50;99.90
24664;DHT22;12791;50.992;13.788;2022-11-20T19:07:04;-0.60;99.90
24664;DHT22;12791;50.992;13.788;2022-11-20T19:09:31;-0.70;99.90
24664;DHT22;12791;50.992;13.788;2022-11-20T19:11:57;-0.70;99.90
24664;DHT22;12791;50.992;13.788;2022-11-20T19:14:25;-0.70;99.90
24664;DHT22;12791;50.992;13.788;2022-11-20T19:16:51;-1.00;99.90
24664;DHT22;12791;50.992;13.788;2022-11-20T19:19:18;-0.90;99.90
24664;DHT22;12791;50.992;13.788;2022-11-20T19:21:45;-0.90;99.90
24664;DHT22;12791;50.992;13.788;2022-11-20T19:24:13;-0.80;99.90
24664;DHT22;12791;50.992;13.788;2022-11-20T19:26:40;-1.00;99.90
24664;DHT22;12791;50.992;13.788;2022-11-20T19:29:06;-0.90;99.90
24664;DHT22;12791;50.992;13.788;2022-11-20T19:31:33;-0.90;99.90
24664;DHT22;12791;50.992;13.788;2022-11-20T19:34:01;-0.80;99.90
24664;DHT22;12791;50.992;13.788;2022-11-20T19:36:30;-0.80;99.90
24664;DHT22;12791;50.992;13.788;2022-11-20T19:38:57;-0.90;99.90